Time;durP1;ratioP1;P1;durP2;ratioP2;P2;SDS_P1;SDS_P2;PMS_P1;PMS_P2;Temp;Humidity;BMP_temperature;BMP_pressure;BME280_temperature;BME280_humidity;BME280_pressure;Samples;Min_cycle;Max_cycle;Signal;HPM_P1;HPM_P2
2023/09/18 00:01:53;;;;;;;17.88;15.77;;;17.10;99.90;;;;;;5141356;27;20034;-62
2023/09/18 00:04:19;;;;;;;17.67;15.88;;;17.10;99.90;;;;;;5119005;27;20492;-61
2023/09/18 00:06:45;;;;;;;18.30;15.90;;;17.10;99.90;;;;;;5116802;27;20039;-61
2023/09/18 00:09:13;;;;;;;17.63;15.93;;;17.10;99.90;;;;;;5119073;27;20043;-61
2023/09/18 00:11:39;;;;;;;16.77;15.10;;;17.10;99.90;;;;;;5139857;27;20354;-62
2023/09/18 00:14:05;;;;;;;19.13;15.73;;;17.10;99.90;;;;;;5134705;27;20039;-62
2023/09/18 00:16:31;;;;;;;17.98;16.17;;;17.20;99.90;;;;;;5138943;27;20041;-62
2023/09/18 00:18:57;;;;;;;18.73;16.73;;;17.10;99.90;;;;;;5117014;27;20057;-62
2023/09/18 00:21:25;;;;;;;16.70;15.10;;;17.20;99.90;;;;;;5117493;27;20039;-62
2023/09/18 00:23:51;;;;;;;15.60;13.98;;;17.20;99.90;;;;;;5100719;27;20023;-62
2023/09/18 00:26:17;;;;;;;17.55;15.52;;;17.20;99.90;;;;;;5134829;27;20050;-62
2023/09/18 00:28:43;;;;;;;19.40;16.83;;;17.20;99.90;;;;;;5116114;27;20051;-62
2023/09/18 00:31:09;;;;;;;17.77;16.02;;;17.20;99.90;;;;;;5136019;27;20699;-62
2023/09/18 00:33:35;;;;;;;18.75;14.93;;;17.20;99.90;;;;;;5110912;27;20103;-62
2023/09/18 00:36:01;;;;;;;16.63;14.93;;;17.20;99.90;;;;;;5120281;27;20408;-62
2023/09/18 00:38:26;;;;;;;17.27;15.20;;;17.20;99.90;;;;;;5116416;27;20050;-61
2023/09/18 00:40:52;;;;;;;19.00;17.05;;;17.20;99.90;;;;;;5134770;27;20086;-62
2023/09/18 00:43:18;;;;;;;18.10;16.27;;;17.20;99.90;;;;;;5117477;27;20083;-62
2023/09/18 00:45:47;;;;;;;17.13;15.48;;;17.30;99.90;;;;;;5119766;27;20070;-62
2023/09/18 00:48:14;;;;;;;17.70;15.88;;;17.30;99.90;;;;;;5136376;27;20742;-62
2023/09/18 00:50:40;;;;;;;16.15;14.45;;;17.30;99.90;;;;;;5135544;27;20038;-62
2023/09/18 00:53:09;;;;;;;17.42;15.73;;;17.30;99.90;;;;;;5134879;27;20045;-61
2023/09/18 00:55:37;;;;;;;17.17;15.48;;;17.30;99.90;;;;;;5119834;27;20047;-62
2023/09/18 00:58:04;;;;;;;16.70;14.98;;;17.40;99.90;;;;;;5099214;27;20532;-62
2023/09/18 01:00:29;;;;;;;18.42;16.52;;;17.30;99.90;;;;;;5099233;27;20062;-62
2023/09/18 01:02:55;;;;;;;18.35;16.45;;;17.30;99.90;;;;;;5138542;27;20524;-62
2023/09/18 01:05:21;;;;;;;18.80;16.92;;;17.30;99.90;;;;;;5138075;27;20050;-62
2023/09/18 01:07:47;;;;;;;19.92;17.15;;;17.30;99.90;;;;;;5117558;27;20133;-62
2023/09/18 01:10:16;;;;;;;16.98;15.27;;;17.30;99.90;;;;;;5113638;27;20409;-62
2023/09/18 01:12:58;;;;;;;18.65;16.73;;;17.30;99.90;;;;;;5116519;27;20046;-62
2023/09/18 01:15:32;;;;;;;18.52;16.67;;;17.40;99.90;;;;;;5137568;27;20553;-63
2023/09/18 01:17:59;;;;;;;18.52;16.73;;;17.30;99.90;;;;;;5114204;27;20477;-62
2023/09/18 01:20:24;;;;;;;18.85;16.95;;;17.30;99.90;;;;;;5133802;27;20030;-62
2023/09/18 01:22:50;;;;;;;19.15;17.23;;;17.30;99.90;;;;;;5135842;27;20038;-62
2023/09/18 01:25:16;;;;;;;19.55;17.55;;;17.40;99.90;;;;;;5120916;27;20057;-62
2023/09/18 01:27:42;;;;;;;22.15;19.45;;;17.30;99.90;;;;;;5135164;27;20026;-62
2023/09/18 01:30:08;;;;;;;19.30;17.30;;;17.40;99.90;;;;;;5116813;27;20038;-62
2023/09/18 01:32:36;;;;;;;20.40;18.30;;;17.50;99.90;;;;;;5116067;27;20038;-62
2023/09/18 01:35:05;;;;;;;20.27;18.20;;;17.40;99.90;;;;;;5139738;27;20698;-62
2023/09/18 01:37:32;;;;;;;21.48;19.17;;;17.50;99.90;;;;;;5117213;27;20060;-62
2023/09/18 01:39:59;;;;;;;20.90;18.85;;;17.50;99.90;;;;;;5116666;27;20102;-62
2023/09/18 01:42:28;;;;;;;22.38;20.00;;;17.50;99.90;;;;;;5134530;27;20035;-62
2023/09/18 01:44:55;;;;;;;20.88;18.77;;;17.60;99.90;;;;;;5133690;27;20118;-63
2023/09/18 01:47:26;;;;;;;21.77;19.55;;;17.60;99.90;;;;;;5113818;27;20118;-62
2023/09/18 01:49:52;;;;;;;21.58;19.38;;;17.60;99.90;;;;;;5109263;27;20055;-62
2023/09/18 01:52:18;;;;;;;21.58;19.38;;;17.60;99.90;;;;;;5113802;27;20466;-62
2023/09/18 01:54:43;;;;;;;20.83;18.83;;;17.60;99.90;;;;;;5133058;27;20393;-62
2023/09/18 01:57:09;;;;;;;21.05;18.85;;;17.60;99.90;;;;;;5113975;27;20045;-62
2023/09/18 01:59:35;;;;;;;19.17;17.17;;;17.60;99.90;;;;;;5129155;27;20038;-62
2023/09/18 02:02:03;;;;;;;20.15;18.15;;;17.60;99.90;;;;;;5115806;27;20042;-62
2023/09/18 02:04:29;;;;;;;19.95;17.90;;;17.60;99.90;;;;;;5113503;27;20050;-62
2023/09/18 02:06:57;;;;;;;19.52;17.60;;;17.60;99.90;;;;;;5113614;27;20044;-63
2023/09/18 02:09:22;;;;;;;19.55;17.65;;;17.60;99.90;;;;;;5114703;27;20492;-61
2023/09/18 02:11:48;;;;;;;18.98;17.08;;;17.60;99.90;;;;;;5136444;27;20039;-63
2023/09/18 02:14:14;;;;;;;19.20;17.38;;;17.60;99.90;;;;;;5113043;27;20035;-62
2023/09/18 02:16:42;;;;;;;19.60;17.65;;;17.60;99.90;;;;;;5116748;27;20042;-62
2023/09/18 02:19:08;;;;;;;19.27;17.27;;;17.60;99.90;;;;;;5112325;27;20093;-62
2023/09/18 02:21:34;;;;;;;20.42;18.42;;;17.60;99.90;;;;;;5115749;27;20039;-62
2023/09/18 02:24:00;;;;;;;19.38;17.38;;;17.60;99.90;;;;;;5112703;27;20034;-63
2023/09/18 02:26:26;;;;;;;18.13;16.38;;;17.60;99.90;;;;;;5118051;27;20153;-62
2023/09/18 02:28:58;;;;;;;17.55;15.75;;;17.60;99.90;;;;;;5134858;27;20088;-62
2023/09/18 02:31:23;;;;;;;18.25;16.30;;;17.60;99.90;;;;;;5120210;27;20038;-63
2023/09/18 02:33:49;;;;;;;18.15;16.33;;;17.70;99.90;;;;;;5116234;27;20042;-62
2023/09/18 02:36:15;;;;;;;18.23;16.20;;;17.60;99.90;;;;;;5135333;27;20037;-63
2023/09/18 02:38:41;;;;;;;18.05;16.15;;;17.70;99.90;;;;;;5118445;27;20039;-62
2023/09/18 02:41:07;;;;;;;17.30;15.50;;;17.60;99.90;;;;;;5100296;27;20416;-62
2023/09/18 02:43:33;;;;;;;20.15;17.42;;;17.70;99.90;;;;;;5116951;27;20043;-62
2023/09/18 02:45:58;;;;;;;17.80;15.98;;;17.70;99.90;;;;;;5116123;27;20129;-61
2023/09/18 02:48:24;;;;;;;22.05;17.02;;;17.70;99.90;;;;;;5101902;27;20053;-62
2023/09/18 02:50:50;;;;;;;19.27;17.30;;;17.70;99.90;;;;;;5135810;27;20046;-63
2023/09/18 02:53:21;;;;;;;18.00;16.25;;;17.70;99.90;;;;;;5136009;27;20085;-62
2023/09/18 02:55:50;;;;;;;19.30;17.05;;;17.70;99.90;;;;;;5118028;27;20517;-62
2023/09/18 02:58:16;;;;;;;18.77;16.98;;;17.70;99.90;;;;;;5116291;27;20046;-62
2023/09/18 03:00:45;;;;;;;19.48;17.48;;;17.70;99.90;;;;;;5120527;27;20363;-63
2023/09/18 03:03:11;;;;;;;19.42;17.42;;;17.70;99.90;;;;;;5141284;27;20113;-62
2023/09/18 03:05:38;;;;;;;19.27;16.67;;;17.70;99.90;;;;;;5123597;27;20044;-62
2023/09/18 03:08:04;;;;;;;18.52;16.50;;;17.70;99.90;;;;;;5145895;27;20366;-62
2023/09/18 03:10:34;;;;;;;18.75;16.75;;;17.70;99.90;;;;;;5128251;27;20042;-62
2023/09/18 03:13:00;;;;;;;17.65;15.85;;;17.70;99.90;;;;;;5126015;27;20047;-62
2023/09/18 03:15:26;;;;;;;17.63;15.77;;;17.70;99.90;;;;;;5129724;27;20045;-63
2023/09/18 03:17:51;;;;;;;18.42;16.63;;;17.70;99.90;;;;;;5108372;27;20035;-62
2023/09/18 03:20:17;;;;;;;17.20;15.50;;;17.70;99.90;;;;;;5129390;27;20098;-62
2023/09/18 03:22:43;;;;;;;16.83;14.90;;;17.70;99.90;;;;;;5126242;27;20035;-63
2023/09/18 03:25:09;;;;;;;16.08;14.43;;;17.70;99.90;;;;;;5149170;27;20031;-62
2023/09/18 03:27:35;;;;;;;16.77;15.00;;;17.80;99.90;;;;;;5128101;27;20091;-62
2023/09/18 03:30:01;;;;;;;16.30;14.15;;;17.80;99.90;;;;;;5125929;27;20042;-62
2023/09/18 03:32:26;;;;;;;15.80;14.15;;;17.80;99.90;;;;;;5128706;27;20398;-62
2023/09/18 03:34:53;;;;;;;16.08;13.95;;;17.80;99.90;;;;;;5125874;27;20046;-62
2023/09/18 03:37:19;;;;;;;15.40;13.77;;;17.80;99.90;;;;;;5129567;27;20043;-62
2023/09/18 03:39:45;;;;;;;15.35;13.90;;;17.90;99.90;;;;;;5126259;27;20042;-62
2023/09/18 03:42:10;;;;;;;13.95;12.65;;;17.90;99.90;;;;;;5130430;27;20046;-62
2023/09/18 03:44:37;;;;;;;14.85;13.27;;;17.90;99.90;;;;;;5128842;27;20049;-62
2023/09/18 03:47:03;;;;;;;15.82;12.75;;;17.90;99.90;;;;;;5122874;27;20038;-62
2023/09/18 03:49:29;;;;;;;15.48;12.65;;;18.00;99.90;;;;;;5111136;27;20143;-63
2023/09/18 03:51:55;;;;;;;13.77;12.40;;;18.00;99.90;;;;;;5129262;27;20564;-62
2023/09/18 03:54:20;;;;;;;12.88;11.23;;;18.00;99.90;;;;;;5128403;27;20037;-62
2023/09/18 03:56:46;;;;;;;13.77;12.30;;;18.00;99.90;;;;;;5143537;27;20110;-62
2023/09/18 03:59:15;;;;;;;12.60;11.40;;;18.00;99.90;;;;;;5130325;27;20497;-63
2023/09/18 04:01:40;;;;;;;13.25;11.38;;;18.00;99.90;;;;;;5124456;27;20043;-62
2023/09/18 04:04:06;;;;;;;13.20;11.80;;;18.00;99.90;;;;;;5130114;27;20469;-62
2023/09/18 04:06:41;;;;;;;12.45;11.20;;;18.00;99.90;;;;;;5128941;27;20035;-63
2023/09/18 04:09:07;;;;;;;12.02;10.82;;;18.00;99.90;;;;;;5127851;27;20059;-61
2023/09/18 04:11:33;;;;;;;15.95;11.73;;;18.00;99.90;;;;;;5126959;27;20071;-63
2023/09/18 04:14:03;;;;;;;12.25;11.00;;;18.00;99.90;;;;;;5145364;27;20485;-62
2023/09/18 04:16:30;;;;;;;13.63;11.52;;;18.00;99.90;;;;;;5129167;27;20038;-62
2023/09/18 04:18:56;;;;;;;13.55;10.75;;;18.10;99.90;;;;;;5122655;27;20039;-62
2023/09/18 04:21:23;;;;;;;12.80;10.52;;;18.10;99.90;;;;;;5128390;27;20107;-62
2023/09/18 04:23:55;;;;;;;12.13;9.93;;;18.10;99.90;;;;;;5144647;27;20563;-62
2023/09/18 04:26:21;;;;;;;12.75;9.98;;;18.10;99.90;;;;;;5126502;27;20463;-62
2023/09/18 04:28:47;;;;;;;11.05;9.95;;;18.10;99.90;;;;;;5143082;27;20122;-62
2023/09/18 04:31:13;;;;;;;10.07;9.07;;;18.10;99.90;;;;;;5145695;27;20042;-62
2023/09/18 04:33:39;;;;;;;11.13;8.77;;;18.20;99.90;;;;;;5128535;27;20060;-62
2023/09/18 04:36:04;;;;;;;11.65;8.68;;;18.20;99.90;;;;;;5128309;27;20047;-62
2023/09/18 04:38:30;;;;;;;10.48;8.65;;;18.20;99.90;;;;;;5125315;27;20130;-62
2023/09/18 04:40:59;;;;;;;10.27;8.23;;;18.20;99.90;;;;;;5128323;27;20035;-62
2023/09/18 04:43:25;;;;;;;18.65;10.07;;;18.20;99.90;;;;;;5125104;27;20147;-63
2023/09/18 04:45:51;;;;;;;11.52;8.80;;;18.30;99.90;;;;;;5127688;27;20497;-62
2023/09/18 04:48:17;;;;;;;12.27;8.82;;;18.30;99.90;;;;;;5143219;27;20031;-62
2023/09/18 04:50:43;;;;;;;9.93;8.70;;;18.30;99.90;;;;;;5148938;27;20078;-62
2023/09/18 04:53:09;;;;;;;10.48;8.35;;;18.40;99.90;;;;;;5132908;27;20728;-62
2023/09/18 04:55:35;;;;;;;11.60;8.55;;;18.40;99.90;;;;;;5132751;27;20034;-62
2023/09/18 04:58:00;;;;;;;12.38;9.38;;;18.40;99.90;;;;;;5132138;27;20081;-62
2023/09/18 05:00:26;;;;;;;11.20;9.38;;;18.40;99.90;;;;;;5149818;27;20037;-61
2023/09/18 05:02:52;;;;;;;12.18;9.45;;;18.40;99.90;;;;;;5116344;27;20065;-63
2023/09/18 05:05:18;;;;;;;11.00;9.88;;;18.40;99.90;;;;;;5116188;27;20047;-63
2023/09/18 05:07:44;;;;;;;10.48;9.27;;;18.30;99.90;;;;;;5133144;27;20038;-62
2023/09/18 05:10:10;;;;;;;13.88;10.07;;;18.30;99.90;;;;;;5135642;27;20043;-62
2023/09/18 05:12:38;;;;;;;12.13;10.38;;;18.30;99.90;;;;;;5117575;27;20043;-62
2023/09/18 05:15:04;;;;;;;11.88;10.65;;;18.20;99.90;;;;;;5118571;27;20077;-63
2023/09/18 05:17:51;;;;;;;12.10;10.00;;;18.30;99.90;;;;;;5130175;27;20043;-62
2023/09/18 05:20:17;;;;;;;11.07;9.93;;;18.20;99.90;;;;;;5112365;27;20038;-62
2023/09/18 05:22:44;;;;;;;11.23;10.13;;;18.20;99.90;;;;;;5126314;27;20042;-63
2023/09/18 05:25:10;;;;;;;12.27;9.10;;;18.20;99.90;;;;;;5150194;27;20038;-62
2023/09/18 05:27:43;;;;;;;10.93;9.07;;;18.20;99.90;;;;;;5124159;27;20039;-63
2023/09/18 05:30:20;;;;;;;11.38;9.63;;;18.20;99.90;;;;;;5135211;27;20035;-63
2023/09/18 05:32:47;;;;;;;11.10;9.25;;;18.20;99.90;;;;;;5130841;27;20039;-62
2023/09/18 05:35:14;;;;;;;12.02;9.38;;;18.10;99.90;;;;;;5130453;27;20447;-63
2023/09/18 05:37:40;;;;;;;12.60;9.52;;;18.10;99.90;;;;;;5116387;28;20522;-62
2023/09/18 05:40:10;;;;;;;13.65;10.00;;;18.10;99.90;;;;;;5113979;27;20140;-62
2023/09/18 05:42:37;;;;;;;13.65;10.00;;;18.10;99.90;;;;;;5123292;27;20045;-62
2023/09/18 05:45:06;;;;;;;10.88;8.45;;;18.10;99.90;;;;;;5151238;27;20044;-63
2023/09/18 05:47:33;;;;;;;10.05;9.00;;;18.10;99.90;;;;;;5119452;27;20034;-63
2023/09/18 05:49:59;;;;;;;10.70;9.02;;;18.10;99.90;;;;;;5128774;27;20142;-62
2023/09/18 05:52:25;;;;;;;12.25;8.73;;;18.10;99.90;;;;;;5136223;27;20549;-62
2023/09/18 05:54:51;;;;;;;13.68;9.55;;;18.00;99.90;;;;;;5112657;28;20450;-62
2023/09/18 05:57:17;;;;;;;11.63;9.02;;;18.10;99.90;;;;;;5136347;27;20083;-63
2023/09/18 05:59:46;;;;;;;9.23;8.38;;;18.00;99.90;;;;;;5141520;27;20138;-63
2023/09/18 06:02:11;;;;;;;10.75;8.60;;;18.00;99.90;;;;;;5133005;27;20034;-63
2023/09/18 06:04:37;;;;;;;9.40;8.30;;;18.00;99.90;;;;;;5133201;27;20118;-63
2023/09/18 06:07:04;;;;;;;11.73;9.18;;;18.00;99.90;;;;;;5131956;27;20066;-63
2023/09/18 06:09:29;;;;;;;9.40;8.50;;;18.00;99.90;;;;;;5116395;27;20083;-63
2023/09/18 06:11:55;;;;;;;12.88;8.77;;;18.10;99.90;;;;;;5126294;27;20508;-63
2023/09/18 06:14:21;;;;;;;10.82;8.70;;;18.10;99.90;;;;;;5128383;27;20400;-64
2023/09/18 06:16:46;;;;;;;11.60;9.77;;;18.10;99.90;;;;;;5140154;27;20072;-63
2023/09/18 06:19:13;;;;;;;12.27;8.77;;;18.10;99.90;;;;;;5145600;27;20070;-63
2023/09/18 06:21:39;;;;;;;13.23;9.23;;;18.10;99.90;;;;;;5143907;27;20043;-63
2023/09/18 06:24:06;;;;;;;13.95;9.70;;;18.10;99.90;;;;;;5136244;27;20031;-63
2023/09/18 06:26:31;;;;;;;13.35;10.25;;;18.10;99.90;;;;;;5120843;27;20031;-62
2023/09/18 06:28:57;;;;;;;14.75;9.85;;;18.20;99.90;;;;;;5139588;27;20038;-63
2023/09/18 06:31:23;;;;;;;13.88;9.75;;;18.10;99.90;;;;;;5117168;27;20050;-62
2023/09/18 06:33:49;;;;;;;12.05;9.88;;;18.20;99.90;;;;;;5098609;27;20486;-63
2023/09/18 06:36:14;;;;;;;11.95;10.50;;;18.20;99.90;;;;;;5119825;27;20062;-63
2023/09/18 06:38:40;;;;;;;15.48;10.95;;;18.20;99.90;;;;;;5115274;27;20051;-62
2023/09/18 06:41:06;;;;;;;15.25;11.75;;;18.20;99.90;;;;;;5126078;27;20558;-62
2023/09/18 06:43:31;;;;;;;15.30;11.10;;;18.20;99.90;;;;;;5135829;27;20511;-62
2023/09/18 06:46:00;;;;;;;15.85;12.25;;;18.10;99.90;;;;;;5124689;27;20058;-62
2023/09/18 06:48:26;;;;;;;20.77;12.43;;;18.10;99.90;;;;;;5117708;27;20738;-63
2023/09/18 06:50:51;;;;;;;15.85;12.43;;;18.10;99.90;;;;;;5114998;27;20073;-63
2023/09/18 06:53:17;;;;;;;19.65;13.77;;;18.10;99.90;;;;;;5133677;27;20156;-63
2023/09/18 06:55:43;;;;;;;17.15;13.60;;;18.10;99.90;;;;;;5114845;27;20054;-63
2023/09/18 06:58:09;;;;;;;21.85;14.63;;;18.10;99.90;;;;;;5136543;27;20123;-63
2023/09/18 07:00:35;;;;;;;21.50;14.48;;;18.10;99.90;;;;;;5151833;27;20512;-62
2023/09/18 07:03:00;;;;;;;21.17;16.05;;;18.10;99.90;;;;;;5134776;27;20047;-62
2023/09/18 07:05:26;;;;;;;21.95;15.02;;;18.10;99.90;;;;;;5154156;27;20045;-63
2023/09/18 07:07:52;;;;;;;16.52;14.52;;;18.10;99.90;;;;;;5118118;27;20115;-63
2023/09/18 07:10:18;;;;;;;19.50;14.55;;;18.10;99.90;;;;;;5141633;27;20031;-63
2023/09/18 07:12:44;;;;;;;21.88;15.05;;;18.10;99.90;;;;;;5096362;27;20050;-63
2023/09/18 07:15:10;;;;;;;22.27;15.35;;;18.20;99.90;;;;;;5114715;27;20039;-62
2023/09/18 07:17:36;;;;;;;19.23;15.35;;;18.10;99.90;;;;;;5114472;27;20110;-62
2023/09/18 07:20:09;;;;;;;19.65;15.50;;;18.20;99.90;;;;;;5125615;27;20046;-62
2023/09/18 07:22:35;;;;;;;17.48;14.05;;;18.20;99.90;;;;;;5097498;27;20141;-62
2023/09/18 07:25:00;;;;;;;20.75;15.60;;;18.20;99.90;;;;;;5114644;27;20114;-62
2023/09/18 07:27:26;;;;;;;17.30;14.15;;;18.30;99.90;;;;;;5097187;27;20055;-62
2023/09/18 07:29:55;;;;;;;15.55;13.38;;;18.20;99.90;;;;;;5116280;27;20043;-63
2023/09/18 07:32:20;;;;;;;17.48;13.20;;;18.20;99.90;;;;;;5129044;27;20050;-62
2023/09/18 07:34:47;;;;;;;19.13;13.88;;;18.20;99.90;;;;;;5133112;27;20038;-62
2023/09/18 07:37:12;;;;;;;15.60;12.93;;;18.20;99.90;;;;;;5117228;27;20096;-62
2023/09/18 07:39:42;;;;;;;17.05;12.57;;;18.20;99.90;;;;;;5131498;27;20436;-63
2023/09/18 07:42:08;;;;;;;18.50;12.68;;;18.20;99.90;;;;;;5117135;27;20506;-63
2023/09/18 07:44:33;;;;;;;20.35;13.90;;;18.20;99.90;;;;;;5133045;27;20027;-62
2023/09/18 07:47:01;;;;;;;14.68;13.10;;;18.20;99.90;;;;;;5132566;27;20374;-63
2023/09/18 07:49:26;;;;;;;14.23;12.18;;;18.20;99.90;;;;;;5114048;27;20497;-63
2023/09/18 07:51:52;;;;;;;13.90;11.85;;;18.20;99.90;;;;;;5116501;27;20090;-62
2023/09/18 07:54:17;;;;;;;13.88;11.20;;;18.20;99.90;;;;;;5114019;27;20035;-63
2023/09/18 07:56:43;;;;;;;14.48;11.65;;;18.30;99.90;;;;;;5114221;27;20054;-62
2023/09/18 07:59:10;;;;;;;13.68;10.98;;;18.20;99.90;;;;;;5132228;27;20126;-63
2023/09/18 08:01:36;;;;;;;16.58;11.57;;;18.30;99.90;;;;;;5132345;27;20106;-63
2023/09/18 08:04:02;;;;;;;12.75;10.45;;;18.30;99.90;;;;;;5115548;27;20138;-62
2023/09/18 08:06:28;;;;;;;15.73;11.80;;;18.30;99.90;;;;;;5113735;27;20455;-63
2023/09/18 08:08:54;;;;;;;14.50;11.30;;;18.30;99.90;;;;;;5114079;27;20117;-63
2023/09/18 08:11:19;;;;;;;16.80;11.98;;;18.40;99.90;;;;;;5132441;27;20138;-63
2023/09/18 08:13:45;;;;;;;18.73;12.93;;;18.30;99.90;;;;;;5117750;27;20095;-62
2023/09/18 08:16:11;;;;;;;15.57;11.98;;;18.40;99.90;;;;;;5132196;27;20069;-63
2023/09/18 08:18:40;;;;;;;16.67;12.95;;;18.40;99.90;;;;;;5118964;27;20097;-62
2023/09/18 08:21:09;;;;;;;15.20;12.55;;;18.50;99.90;;;;;;5134248;27;20042;-63
2023/09/18 08:23:38;;;;;;;15.88;12.57;;;18.50;99.90;;;;;;5151604;27;20031;-63
2023/09/18 08:26:03;;;;;;;14.73;12.52;;;18.50;99.90;;;;;;5152682;27;20389;-63
2023/09/18 08:28:30;;;;;;;13.73;11.82;;;18.50;99.90;;;;;;5133964;27;20042;-63
2023/09/18 08:30:55;;;;;;;18.35;13.15;;;18.60;99.90;;;;;;5116436;27;20093;-63
2023/09/18 08:33:21;;;;;;;16.17;12.02;;;18.60;99.90;;;;;;5128293;27;20043;-63
2023/09/18 08:35:49;;;;;;;16.52;12.40;;;18.60;99.90;;;;;;5136773;27;20046;-63
2023/09/18 08:38:15;;;;;;;16.10;12.20;;;18.60;99.90;;;;;;5095419;27;20447;-63
2023/09/18 08:40:44;;;;;;;13.80;12.20;;;18.70;99.90;;;;;;5132318;27;20051;-62
2023/09/18 08:43:11;;;;;;;16.55;12.07;;;18.70;99.90;;;;;;5112656;27;20039;-63
2023/09/18 08:45:47;;;;;;;17.48;11.93;;;18.70;99.90;;;;;;5098703;27;20591;-62
2023/09/18 08:48:12;;;;;;;14.27;12.25;;;18.70;99.90;;;;;;5114673;27;20053;-63
2023/09/18 08:50:39;;;;;;;17.13;12.73;;;18.70;99.90;;;;;;5133231;27;20046;-63
2023/09/18 08:53:05;;;;;;;15.48;11.85;;;18.70;99.90;;;;;;5135427;27;20439;-63
2023/09/18 08:55:33;;;;;;;16.48;11.82;;;18.70;99.90;;;;;;5115071;27;20129;-63
2023/09/18 08:57:59;;;;;;;15.88;12.23;;;18.70;99.90;;;;;;5151873;27;20477;-63
2023/09/18 09:00:26;;;;;;;17.45;12.30;;;18.80;99.90;;;;;;5115667;27;20118;-63
2023/09/18 09:02:54;;;;;;;14.57;13.00;;;18.80;99.90;;;;;;5132807;27;20117;-63
2023/09/18 09:05:23;;;;;;;14.93;13.23;;;18.80;99.90;;;;;;5133168;27;20046;-63
2023/09/18 09:07:50;;;;;;;15.90;12.45;;;18.80;99.90;;;;;;5118268;27;20118;-63
2023/09/18 09:10:16;;;;;;;15.18;13.05;;;18.90;99.90;;;;;;5112670;27;20042;-62
2023/09/18 09:12:59;;;;;;;17.60;12.43;;;18.90;99.90;;;;;;5112532;27;20039;-63
2023/09/18 09:15:46;;;;;;;17.45;13.35;;;18.90;99.90;;;;;;5132190;27;20049;-63
2023/09/18 09:18:12;;;;;;;17.17;13.13;;;19.10;99.90;;;;;;5151164;27;20035;-63
2023/09/18 09:20:39;;;;;;;17.73;13.05;;;19.10;99.90;;;;;;5132377;27;20031;-63
2023/09/18 09:23:07;;;;;;;14.85;13.32;;;19.20;99.90;;;;;;5145390;27;20140;-63
2023/09/18 09:25:34;;;;;;;19.58;12.93;;;19.20;99.90;;;;;;5130913;27;20462;-63
2023/09/18 09:28:03;;;;;;;18.20;13.45;;;19.30;99.90;;;;;;5137000;27;20035;-63
2023/09/18 09:30:30;;;;;;;14.35;12.88;;;19.40;99.90;;;;;;5132705;27;20133;-63
2023/09/18 09:32:57;;;;;;;17.20;12.52;;;19.40;99.90;;;;;;5133050;27;20063;-63
2023/09/18 09:35:28;;;;;;;14.77;11.73;;;19.50;99.90;;;;;;5135157;27;20137;-63
2023/09/18 09:37:59;;;;;;;17.35;12.27;;;19.50;99.90;;;;;;5136652;27;20045;-63
2023/09/18 09:40:25;;;;;;;15.40;11.77;;;19.60;99.90;;;;;;5141920;27;20125;-63
2023/09/18 09:43:00;;;;;;;12.98;11.38;;;19.70;99.90;;;;;;5116606;27;20532;-62
2023/09/18 09:45:28;;;;;;;10.77;9.20;;;19.80;99.90;;;;;;5134142;27;20442;-63
2023/09/18 09:47:56;;;;;;;10.70;9.60;;;19.80;99.90;;;;;;5141337;27;20035;-62
2023/09/18 09:50:22;;;;;;;10.43;9.43;;;19.90;99.90;;;;;;5115482;27;20066;-63
2023/09/18 09:52:49;;;;;;;12.75;8.73;;;19.90;99.90;;;;;;5113035;28;20047;-62
2023/09/18 09:55:29;;;;;;;9.60;8.60;;;20.00;99.90;;;;;;5114490;28;20387;-63
2023/09/18 09:57:59;;;;;;;10.68;8.20;;;20.00;99.90;;;;;;5113099;28;20133;-62
2023/09/18 10:00:42;;;;;;;9.25;7.97;;;20.10;99.90;;;;;;5123289;27;20079;-62
2023/09/18 10:03:10;;;;;;;8.63;7.35;;;20.10;99.90;;;;;;5135011;27;20164;-63
2023/09/18 10:05:39;;;;;;;9.98;7.72;;;20.30;99.90;;;;;;5134637;27;20035;-62
2023/09/18 10:08:08;;;;;;;8.68;7.40;;;20.40;99.90;;;;;;5120712;27;20058;-62
2023/09/18 10:10:38;;;;;;;8.45;7.55;;;20.50;99.90;;;;;;5125375;27;20043;-63
2023/09/18 10:13:09;;;;;;;7.88;7.10;;;20.60;99.90;;;;;;5132202;27;20046;-63
2023/09/18 10:15:42;;;;;;;7.35;6.63;;;20.50;99.90;;;;;;5133473;27;20031;-63
2023/09/18 10:18:37;;;;;;;8.30;6.97;;;20.70;99.90;;;;;;5133450;27;20039;-62
2023/09/18 10:21:38;;;;;;;6.97;6.25;;;20.90;99.90;;;;;;5034887;28;20060;-62
2023/09/18 10:24:24;;;;;;;6.70;6.10;;;20.90;99.90;;;;;;5054238;28;20037;-62
2023/09/18 10:27:04;;;;;;;7.72;5.50;;;21.10;99.90;;;;;;5053659;28;20546;-62
2023/09/18 10:29:32;;;;;;;6.30;5.68;;;21.60;99.90;;;;;;5069525;28;20051;-62
2023/09/18 10:31:58;;;;;;;7.40;4.78;;;22.10;99.90;;;;;;5053329;28;20519;-62
2023/09/18 10:34:25;;;;;;;4.68;4.07;;;22.20;99.90;;;;;;5038086;28;20547;-62
2023/09/18 10:36:52;;;;;;;4.82;4.32;;;22.30;99.90;;;;;;5045019;28;20075;-62
2023/09/18 10:39:24;;;;;;;4.47;4.07;;;22.00;99.90;;;;;;5049850;28;20045;-61
2023/09/18 10:41:55;;;;;;;6.75;3.88;;;21.80;99.90;;;;;;5050710;28;20040;-63
2023/09/18 10:44:22;;;;;;;6.30;4.82;;;21.60;99.90;;;;;;5053743;28;20052;-63
2023/09/18 10:46:49;;;;;;;6.13;3.92;;;21.40;99.90;;;;;;5052874;28;20119;-62
2023/09/18 10:49:19;;;;;;;4.78;4.30;;;21.20;99.90;;;;;;5070635;28;20388;-62
2023/09/18 10:51:46;;;;;;;5.63;4.35;;;21.00;99.90;;;;;;5070267;28;20059;-62
2023/09/18 10:54:16;;;;;;;5.88;4.35;;;21.00;99.90;;;;;;5053754;28;20075;-62
2023/09/18 10:56:42;;;;;;;6.63;4.70;;;20.90;99.90;;;;;;5054179;28;20086;-62
2023/09/18 10:59:08;;;;;;;4.97;4.50;;;20.80;99.90;;;;;;5112945;27;20040;-62
2023/09/18 11:01:38;;;;;;;7.32;4.93;;;20.80;99.90;;;;;;5113200;28;20038;-62
2023/09/18 11:04:10;;;;;;;7.30;4.57;;;21.00;99.90;;;;;;5111778;28;20036;-62
2023/09/18 11:06:54;;;;;;;4.57;4.18;;;21.10;99.90;;;;;;5112173;28;20079;-62
2023/09/18 11:09:40;;;;;;;4.43;3.67;;;21.10;99.90;;;;;;5111570;28;20039;-62
2023/09/18 11:12:06;;;;;;;3.70;3.40;;;21.20;99.90;;;;;;5111873;28;20043;-62
2023/09/18 11:14:42;;;;;;;3.92;3.40;;;21.10;99.90;;;;;;5111725;28;20072;-62
2023/09/18 11:17:35;;;;;;;4.75;3.33;;;21.30;99.90;;;;;;5111843;28;20429;-62
2023/09/18 11:20:06;;;;;;;;;;;21.40;99.90;;;;;;5113184;28;20048;-62
2023/09/18 11:22:31;;;;;;;4.95;2.95;;;21.30;99.90;;;;;;5109776;28;20510;-62
2023/09/18 11:25:48;;;;;;;4.10;3.00;;;21.20;99.90;;;;;;5095579;28;20040;-62
2023/09/18 11:28:18;;;;;;;4.88;3.10;;;21.10;99.90;;;;;;5051378;28;20465;-62
2023/09/18 11:30:58;;;;;;;5.68;3.30;;;21.00;99.90;;;;;;5062707;28;20050;-62
2023/09/18 11:33:31;;;;;;;3.90;3.50;;;20.80;99.90;;;;;;5032533;28;20049;-62
2023/09/18 11:35:57;;;;;;;5.50;3.40;;;20.70;99.90;;;;;;5049424;28;20040;-62
2023/09/18 11:38:23;;;;;;;4.70;3.85;;;20.70;99.90;;;;;;5032372;28;20053;-62
2023/09/18 11:40:49;;;;;;;4.63;3.85;;;20.80;99.90;;;;;;5068288;28;20074;-62
2023/09/18 11:43:25;;;;;;;4.07;3.67;;;20.90;99.90;;;;;;5069245;28;20036;-62
2023/09/18 11:45:55;;;;;;;4.70;3.35;;;21.10;99.90;;;;;;5046228;28;20380;-62
2023/09/18 11:48:24;;;;;;;3.58;3.05;;;21.10;99.90;;;;;;5032318;28;20045;-62
2023/09/18 11:50:52;;;;;;;4.35;3.30;;;21.10;99.90;;;;;;5056064;28;20473;-62
2023/09/18 11:53:18;;;;;;;4.88;2.95;;;21.30;99.90;;;;;;5034442;28;20044;-62
2023/09/18 11:55:44;;;;;;;4.18;2.97;;;21.50;99.90;;;;;;5069117;28;20062;-62
2023/09/18 11:58:10;;;;;;;5.57;3.83;;;21.50;99.90;;;;;;5051535;28;20135;-62
2023/09/18 12:00:45;;;;;;;3.58;2.88;;;21.60;99.90;;;;;;5065210;28;20044;-62
2023/09/18 12:03:17;;;;;;;5.55;3.17;;;21.60;99.90;;;;;;5061756;28;20568;-62
2023/09/18 12:05:44;;;;;;;;;;;21.60;99.90;;;;;;5091012;28;20497;-62
2023/09/18 12:08:11;;;;;;;4.72;3.25;;;21.60;99.90;;;;;;5090615;28;20217;-62
2023/09/18 12:10:37;;;;;;;4.57;3.00;;;21.70;99.90;;;;;;5090035;28;20067;-62
2023/09/18 12:13:08;;;;;;;5.22;3.47;;;21.70;99.90;;;;;;5108223;28;20031;-62
2023/09/18 12:15:34;;;;;;;4.80;3.38;;;21.80;99.90;;;;;;5110364;28;20100;-62
2023/09/18 12:18:13;;;;;;;4.60;3.67;;;21.80;99.90;;;;;;5093068;28;20059;-62
2023/09/18 12:20:46;;;;;;;5.10;3.10;;;21.80;99.90;;;;;;5110263;28;20090;-62
2023/09/18 12:23:11;;;;;;;5.20;3.20;;;21.80;99.90;;;;;;5109248;28;20074;-62
2023/09/18 12:25:39;;;;;;;5.25;3.30;;;21.80;99.90;;;;;;5109475;28;20070;-62
2023/09/18 12:28:07;;;;;;;4.25;3.20;;;21.90;99.90;;;;;;5095868;28;20040;-62
2023/09/18 12:30:33;;;;;;;4.13;3.05;;;21.80;99.90;;;;;;5091082;28;20050;-62
2023/09/18 12:33:03;;;;;;;4.57;2.83;;;21.70;99.90;;;;;;5099809;28;20044;-61
2023/09/18 12:35:30;;;;;;;3.95;3.35;;;21.80;99.90;;;;;;5109973;28;20455;-62
2023/09/18 12:37:59;;;;;;;4.18;3.40;;;21.80;99.90;;;;;;5110180;28;20118;-62